West Carrollton, Ohio
Current Conditions -  °F | °C
As of 11:53 AM on Thursday 30 Oct 2014 (Local Time) from KMGY Reporting Station
Overcast Overcast  
Wind Chill: 48°   Ceiling: 3700
Heat Index: 48°   Visibility: 10mi
Dew Point: 33°   Wind: 3mph
Humidity: 56%   Direction: NA
Pressure: 30.15"   Gusts: NA
Location:  39.664°N, 84.2415°W
Report Text: KMGY 301553Z AUTO VRB03KT 10SM OVC037 09/01 A3015 RMK AO2 SLP212 T00890006
Loading
Personal Weather Stations






























Interactive Weather Map
Tropical Storm Tracking
New forecast layout! Learn more

10-Day Weather Forecast

Advertisements
Track Severe Weather on mobile